Terminal Aerodrome Forecast
Issued by NWS

Home | Current Version | Previous Version | Text Only | Print | Product List | Glossary Off
Versions: 1 2 3 4 5 6 7 8 9 10 11 12 13 14 15

291
FTUS43 KBIS 261723
TAFMOT
TAF
KMOT 261723Z 2618/2718 VRB04KT P6SM SKC
     FM270100 15007KT P6SM SKC
     FM270600 16009KT P6SM SCT250 WS020/19035KT
     FM270800 17009KT P6SM SCT250 WS020/20045KT
     FM271400 17013G21KT P6SM SCT200=

USA.gov is the U.S. government's official web portal to all federal, state and local government web resources and services.